createdAt,value
2023-04-12T00:00:18.085Z,7.30
2023-04-12T00:05:22.990Z,7.30
2023-04-12T00:10:26.272Z,7.20
2023-04-12T00:15:29.215Z,7.20
2023-04-12T00:20:32.588Z,7.10
2023-04-12T00:25:38.752Z,7.10
2023-04-12T00:30:42.013Z,7.10
2023-04-12T00:35:44.991Z,7.10
2023-04-12T00:40:48.493Z,7.10
2023-04-12T00:45:51.601Z,7.00
2023-04-12T00:50:57.969Z,7.00
2023-04-12T00:56:01.901Z,6.90
2023-04-12T01:01:05.823Z,6.90
2023-04-12T01:06:48.499Z,6.80
2023-04-12T01:12:28.520Z,6.70
2023-04-12T01:17:38.515Z,6.70
2023-04-12T01:23:14.966Z,6.70
2023-04-12T01:28:33.781Z,6.70
2023-04-12T01:33:39.812Z,6.60
2023-04-12T01:38:43.751Z,6.60
2023-04-12T01:43:48.070Z,6.60
2023-04-12T01:48:53.611Z,6.60
2023-04-12T01:54:13.269Z,6.70
2023-04-12T01:59:17.866Z,6.70
2023-04-12T02:04:22.297Z,6.70
2023-04-12T02:09:25.212Z,6.70
2023-04-12T02:14:28.645Z,6.80
2023-04-12T02:19:32.851Z,6.80
2023-04-12T02:24:35.954Z,6.80
2023-04-12T02:29:39.033Z,6.80
2023-04-12T02:34:42.369Z,6.70
2023-04-12T02:39:45.316Z,6.60
2023-04-12T02:44:48.752Z,6.50
2023-04-12T02:49:51.536Z,6.40
2023-04-12T02:54:55.081Z,6.30
2023-04-12T02:59:58.158Z,6.20
2023-04-12T03:05:03.584Z,6.10
2023-04-12T03:10:07.754Z,6.10
2023-04-12T03:15:11.245Z,6.20
2023-04-12T03:20:14.965Z,6.20
2023-04-12T03:25:18.851Z,6.20
2023-04-12T03:30:21.946Z,6.30
2023-04-12T03:35:25.024Z,6.30
2023-04-12T03:40:27.950Z,6.30
2023-04-12T03:45:31.108Z,6.30
2023-04-12T03:50:42.420Z,6.30
2023-04-12T03:55:45.392Z,6.30
2023-04-12T04:00:49.177Z,6.30
2023-04-12T04:05:52.302Z,6.20
2023-04-12T04:10:58.006Z,6.20
2023-04-12T04:16:05.847Z,6.10
2023-04-12T04:21:09.140Z,6.10
2023-04-12T04:26:12.601Z,6.10
2023-04-12T04:31:17.684Z,6.10
2023-04-12T04:36:20.952Z,6.10
2023-04-12T04:41:24.421Z,6.10
2023-04-12T04:46:30.631Z,6.20
2023-04-12T04:51:33.708Z,6.20
2023-04-12T04:56:36.694Z,6.30
2023-04-12T05:01:41.582Z,6.30
2023-04-12T05:06:46.554Z,6.50
2023-04-12T05:11:49.446Z,6.60
2023-04-12T05:16:52.433Z,6.70
2023-04-12T05:21:55.393Z,6.90
2023-04-12T05:26:58.986Z,7.00
2023-04-12T05:32:02.649Z,7.10
2023-04-12T05:37:06.101Z,7.40
2023-04-12T05:42:10.383Z,7.60
2023-04-12T05:47:13.432Z,7.90
2023-04-12T05:52:16.591Z,8.20
2023-04-12T05:57:19.793Z,8.30
2023-04-12T06:02:26.063Z,8.50
2023-04-12T06:07:30.178Z,8.70
2023-04-12T06:12:33.451Z,8.90
2023-04-12T06:17:37.839Z,9.00
2023-04-12T06:22:40.887Z,9.10
2023-04-12T06:27:44.045Z,9.20
2023-04-12T06:32:47.071Z,9.40
2023-04-12T06:37:50.419Z,9.50
2023-04-12T06:42:53.376Z,9.70
2023-04-12T06:47:57.264Z,9.80
2023-04-12T06:53:00.104Z,9.90
2023-04-12T06:58:03.067Z,9.90
2023-04-12T07:03:06.092Z,9.90
2023-04-12T07:08:09.615Z,9.90
2023-04-12T07:13:12.488Z,10.00
2023-04-12T07:18:15.528Z,10.10
2023-04-12T07:23:18.623Z,10.30
2023-04-12T07:28:21.619Z,10.40
2023-04-12T07:33:26.561Z,10.60
2023-04-12T07:38:29.686Z,10.80
2023-04-12T07:43:32.592Z,11.20
2023-04-12T07:48:35.736Z,11.70
2023-04-12T07:53:39.517Z,12.00
2023-04-12T07:58:42.706Z,12.60
2023-04-12T08:03:46.902Z,13.00
2023-04-12T08:08:50.030Z,13.20
2023-04-12T08:13:53.433Z,13.30
2023-04-12T08:18:57.300Z,13.20
2023-04-12T08:24:00.481Z,13.00
2023-04-12T08:29:03.452Z,12.90
2023-04-12T08:34:06.430Z,12.80
2023-04-12T08:39:09.582Z,13.00
2023-04-12T08:44:13.334Z,13.10
2023-04-12T08:49:16.931Z,13.50
2023-04-12T08:54:19.888Z,13.80
2023-04-12T08:59:23.104Z,14.30
2023-04-12T09:04:26.858Z,14.80
2023-04-12T09:09:46.708Z,15.40
2023-04-12T09:15:10.309Z,16.10
2023-04-12T09:20:16.001Z,16.50
2023-04-12T09:25:19.031Z,16.80
2023-04-12T09:30:21.951Z,17.10
2023-04-12T09:35:37.105Z,17.50
2023-04-12T09:40:40.420Z,17.70
2023-04-12T09:45:43.190Z,17.80
2023-04-12T09:50:46.265Z,17.80
2023-04-12T09:55:51.461Z,17.50
2023-04-12T10:00:57.123Z,17.40
2023-04-12T10:06:00.195Z,17.10
2023-04-12T10:11:03.435Z,16.60
2023-04-12T10:16:09.535Z,16.70
2023-04-12T10:21:13.223Z,16.80
2023-04-12T10:26:17.115Z,17.40
2023-04-12T10:31:30.810Z,18.00
2023-04-12T10:36:57.332Z,18.10
2023-04-12T10:42:30.709Z,18.20
2023-04-12T10:47:59.088Z,18.40
2023-04-12T10:53:12.847Z,18.60
2023-04-12T10:58:48.032Z,18.70
2023-04-12T11:04:10.022Z,18.80
2023-04-12T11:09:34.452Z,19.30
2023-04-12T11:14:49.156Z,19.60
2023-04-12T11:19:55.660Z,19.60
2023-04-12T11:25:01.099Z,19.60
2023-04-12T11:30:04.710Z,19.90
2023-04-12T11:35:08.784Z,20.00
2023-04-12T11:40:12.136Z,20.40
2023-04-12T11:45:20.208Z,21.00
2023-04-12T11:50:31.521Z,20.90
2023-04-12T11:55:34.401Z,20.80
2023-04-12T12:00:38.141Z,21.00
2023-04-12T12:05:42.877Z,21.20
2023-04-12T12:15:55.199Z,21.40
2023-04-12T12:20:58.210Z,21.30
2023-04-12T12:26:17.489Z,21.20
2023-04-12T12:31:24.007Z,21.60
2023-04-12T12:36:34.586Z,21.60
2023-04-12T12:41:38.893Z,21.80
2023-04-12T12:51:47.701Z,22.40
2023-04-12T12:56:52.752Z,22.40
2023-04-12T13:01:55.920Z,22.60
2023-04-12T13:06:58.810Z,23.00
2023-04-12T13:12:02.306Z,22.90
2023-04-12T13:17:05.849Z,22.40
2023-04-12T13:22:09.062Z,22.60
2023-04-12T13:27:15.226Z,22.70
2023-04-12T13:32:18.677Z,22.70
2023-04-12T13:37:21.692Z,22.90
2023-04-12T13:42:24.687Z,22.60
2023-04-12T13:47:28.206Z,22.30
2023-04-12T13:52:31.309Z,22.00
2023-04-12T13:57:37.286Z,22.20
2023-04-12T14:02:40.292Z,22.20
2023-04-12T14:07:43.442Z,22.20
2023-04-12T14:12:47.013Z,22.20
2023-04-12T14:17:49.954Z,22.50
2023-04-12T14:22:53.012Z,22.80
2023-04-12T14:27:55.931Z,23.00
2023-04-12T14:32:59.109Z,23.30
2023-04-12T14:38:02.598Z,23.50
2023-04-12T14:43:05.879Z,23.50
2023-04-12T14:48:09.635Z,23.30
2023-04-12T14:53:13.874Z,23.40
2023-04-12T14:58:17.313Z,23.50
2023-04-12T15:03:21.281Z,23.30
2023-04-12T15:08:24.529Z,23.20
2023-04-12T15:13:33.556Z,22.90
2023-04-12T15:18:39.482Z,22.50
2023-04-12T15:23:42.616Z,22.00
2023-04-12T15:28:46.259Z,21.60
2023-04-12T15:33:50.610Z,21.80
2023-04-12T15:38:54.431Z,21.70
2023-04-12T15:43:57.659Z,21.60
2023-04-12T15:49:01.390Z,21.70
2023-04-12T15:54:04.615Z,21.40
2023-04-12T15:59:09.247Z,20.80
2023-04-12T16:04:12.556Z,20.30
2023-04-12T16:09:16.734Z,19.80
2023-04-12T16:14:19.590Z,19.50
2023-04-12T16:19:23.512Z,18.90
2023-04-12T16:24:26.806Z,18.50
2023-04-12T16:29:31.638Z,18.10
2023-04-12T16:34:35.083Z,17.60
2023-04-12T16:39:37.975Z,17.10
2023-04-12T16:44:41.450Z,16.80
2023-04-12T16:49:44.472Z,16.40
2023-04-12T16:54:49.170Z,16.00
2023-04-12T16:59:53.464Z,15.60
2023-04-12T17:04:56.750Z,15.20
2023-04-12T17:10:00.050Z,14.90
2023-04-12T17:15:04.480Z,14.50
2023-04-12T17:20:12.921Z,14.20
2023-04-12T17:25:16.787Z,13.90
2023-04-12T17:30:21.238Z,13.60
2023-04-12T17:35:24.188Z,13.20
2023-04-12T17:40:27.316Z,12.80
2023-04-12T17:45:30.940Z,12.50
2023-04-12T17:50:33.879Z,12.20
2023-04-12T17:55:37.615Z,11.80
2023-04-12T18:00:40.754Z,11.60
2023-04-12T18:05:46.193Z,11.50
2023-04-12T18:10:49.329Z,11.30
2023-04-12T18:15:52.459Z,11.10
2023-04-12T18:20:56.081Z,11.00
2023-04-12T18:25:59.309Z,10.80
2023-04-12T18:31:04.811Z,10.60
2023-04-12T18:36:09.992Z,10.50
2023-04-12T18:41:18.286Z,10.50
2023-04-12T18:46:21.769Z,10.30
2023-04-12T18:51:24.984Z,10.20
2023-04-12T18:56:28.376Z,10.10
2023-04-12T19:01:32.130Z,9.90
2023-04-12T19:06:37.188Z,9.80
2023-04-12T19:11:40.230Z,9.70
2023-04-12T19:16:43.301Z,9.60
2023-04-12T19:21:46.529Z,9.60
2023-04-12T19:26:50.588Z,9.50
2023-04-12T19:31:53.986Z,9.50
2023-04-12T19:36:57.040Z,9.40
2023-04-12T19:42:03.505Z,9.30
2023-04-12T19:47:06.691Z,9.20
2023-04-12T19:52:11.073Z,9.20
2023-04-12T19:57:14.160Z,9.10
2023-04-12T20:02:17.255Z,9.00
2023-04-12T20:07:21.045Z,8.90
2023-04-12T20:12:24.063Z,8.80
2023-04-12T20:17:28.482Z,8.80
2023-04-12T20:22:31.823Z,8.80
2023-04-12T20:27:36.643Z,8.60
2023-04-12T20:32:39.881Z,8.60
2023-04-12T20:37:43.311Z,8.50
2023-04-12T20:42:47.258Z,8.40
2023-04-12T20:47:51.403Z,8.30
2023-04-12T20:52:56.281Z,8.10
2023-04-12T20:58:00.769Z,8.00
2023-04-12T21:03:05.237Z,7.90
2023-04-12T21:08:08.374Z,7.80
2023-04-12T21:13:12.701Z,7.70
2023-04-12T21:18:17.298Z,7.70
2023-04-12T21:23:20.373Z,7.60
2023-04-12T21:28:24.534Z,7.50
2023-04-12T21:33:27.680Z,7.50
2023-04-12T21:38:30.780Z,7.50
2023-04-12T21:43:33.870Z,7.40
2023-04-12T21:48:37.091Z,7.40
2023-04-12T21:53:40.201Z,7.40
2023-04-12T21:58:43.757Z,7.40
2023-04-12T22:03:46.965Z,7.50
2023-04-12T22:08:50.017Z,7.40
2023-04-12T22:13:53.379Z,7.40
2023-04-12T22:19:05.234Z,7.40
2023-04-12T22:24:08.388Z,7.40
2023-04-12T22:29:11.438Z,7.30
2023-04-12T22:34:14.650Z,7.20
2023-04-12T22:39:22.520Z,7.10
2023-04-12T22:44:27.158Z,7.10
2023-04-12T22:49:30.598Z,7.10
2023-04-12T22:54:34.452Z,7.10
2023-04-12T22:59:37.490Z,7.10
2023-04-12T23:04:42.550Z,7.20
2023-04-12T23:09:47.317Z,7.30
2023-04-12T23:14:50.975Z,7.40
2023-04-12T23:19:54.058Z,7.60
2023-04-12T23:24:57.362Z,7.60
2023-04-12T23:30:00.137Z,7.80
2023-04-12T23:35:03.533Z,7.90
2023-04-12T23:40:10.898Z,8.00
2023-04-12T23:45:15.145Z,8.00
2023-04-12T23:50:18.149Z,8.20
2023-04-12T23:55:21.225Z,8.20
